Terminal Aerodrome Forecast
Issued by NWS

Home | Current Version | Previous Version | Graphics & Text | Print | Product List | Glossary On
Versions: 1 2 3 4 5 6 7 8 9 10 11 12 13 14 15 16 17 18 19
000
FTUS43 KICT 281736
TAFSLN
TAF
KSLN 281736Z 2818/2918 16015G21KT P6SM OVC080
      TEMPO 2818/2819 5SM -TSRA BKN025CB OVC050
     FM290100 15008KT P6SM SCT020 BKN035
     FM290700 16010KT P6SM VCTS BKN020CB OVC080
     FM291200 19011KT P6SM BKN012 OVC060=

USA.gov is the U.S. government's official web portal to all federal, state and local government web resources and services.